Time;durP1;ratioP1;P1;durP2;ratioP2;P2;SDS_P1;SDS_P2;PMS_P1;PMS_P2;Temp;Humidity;BMP_temperature;BMP_pressure;BME280_temperature;BME280_humidity;BME280_pressure;Samples;Min_cycle;Max_cycle;Signal;HPM_P1;HPM_P2
2021/06/08 00:00:30;;;;;;;15.18;4.30;;;20.70;39.30;;;;;;1045242;28;20320;-76
2021/06/08 00:01:02;;;;;;;14.98;4.35;;;20.70;39.40;;;;;;1048800;28;20046;-76
2021/06/08 00:01:34;;;;;;;12.88;4.00;;;20.70;39.60;;;;;;1048814;28;20021;-75
2021/06/08 00:02:06;;;;;;;13.43;4.40;;;20.70;39.60;;;;;;1049013;28;20016;-77
2021/06/08 00:02:37;;;;;;;17.73;4.45;;;20.70;39.60;;;;;;1048574;28;20043;-76
2021/06/08 00:03:08;;;;;;;12.15;4.00;;;20.70;39.50;;;;;;1049189;28;20146;-76
2021/06/08 00:03:40;;;;;;;16.00;4.13;;;20.70;39.80;;;;;;1048936;28;20031;-78
2021/06/08 00:04:11;;;;;;;15.15;4.00;;;20.70;40.00;;;;;;1048944;28;20028;-78
2021/06/08 00:04:43;;;;;;;14.80;4.38;;;20.60;39.70;;;;;;1048720;28;20029;-77
2021/06/08 00:05:14;;;;;;;14.77;4.28;;;20.60;40.10;;;;;;1049131;28;20472;-77
2021/06/08 00:05:45;;;;;;;16.10;4.47;;;20.50;40.20;;;;;;1053091;28;20095;-77
2021/06/08 00:06:17;;;;;;;18.08;4.43;;;20.50;40.50;;;;;;1052779;28;20369;-76
2021/06/08 00:06:50;;;;;;;14.30;4.25;;;20.50;40.30;;;;;;1048837;28;20084;-76
2021/06/08 00:07:21;;;;;;;16.17;4.18;;;20.60;40.50;;;;;;1048984;28;20019;-76
2021/06/08 00:07:52;;;;;;;13.80;4.18;;;20.50;40.60;;;;;;1048957;28;20488;-77
2021/06/08 00:08:24;;;;;;;13.95;3.88;;;20.40;40.30;;;;;;1048675;28;20023;-77
2021/06/08 00:08:56;;;;;;;14.38;4.53;;;20.30;40.60;;;;;;1048741;28;20385;-76
2021/06/08 00:09:27;;;;;;;14.43;3.90;;;20.30;40.90;;;;;;1048774;28;20019;-77
2021/06/08 00:09:58;;;;;;;15.90;4.25;;;20.40;40.90;;;;;;1048770;28;20005;-76
2021/06/08 00:10:30;;;;;;;13.13;4.00;;;20.30;40.80;;;;;;1048814;28;20048;-76
2021/06/08 00:11:02;;;;;;;15.88;4.63;;;20.40;40.90;;;;;;1048818;28;20008;-76
2021/06/08 00:11:33;;;;;;;13.68;4.22;;;20.40;40.90;;;;;;1048647;28;20466;-76
2021/06/08 00:12:05;;;;;;;10.32;3.80;;;20.30;41.10;;;;;;1048748;28;20069;-77
2021/06/08 00:12:37;;;;;;;12.90;4.00;;;20.30;41.50;;;;;;1048773;28;20012;-77
2021/06/08 00:13:08;;;;;;;14.77;4.18;;;20.30;41.00;;;;;;1049212;28;20106;-76
2021/06/08 00:13:40;;;;;;;13.65;4.22;;;20.30;40.80;;;;;;1048802;28;20023;-76
2021/06/08 00:14:11;;;;;;;14.57;4.20;;;20.40;40.40;;;;;;1048190;28;20397;-76
2021/06/08 00:14:43;;;;;;;14.35;4.13;;;20.40;40.80;;;;;;1044674;28;20013;-76
2021/06/08 00:15:14;;;;;;;12.48;3.92;;;20.40;40.80;;;;;;1040933;28;20355;-76
2021/06/08 00:15:46;;;;;;;14.60;4.30;;;20.40;40.50;;;;;;1045174;28;20021;-76
2021/06/08 00:16:18;;;;;;;16.50;4.40;;;20.40;40.50;;;;;;1048782;28;20092;-76
2021/06/08 00:16:49;;;;;;;13.30;4.00;;;20.50;40.30;;;;;;1048837;28;20067;-78
2021/06/08 00:17:21;;;;;;;12.70;4.03;;;20.50;40.20;;;;;;1049540;28;20108;-76
2021/06/08 00:17:52;;;;;;;16.15;4.20;;;20.50;40.50;;;;;;1052853;28;20031;-77
2021/06/08 00:18:24;;;;;;;13.10;4.10;;;20.50;40.50;;;;;;1052643;28;20354;-75
2021/06/08 00:18:55;;;;;;;13.63;4.10;;;20.50;40.20;;;;;;1044853;28;20013;-75
2021/06/08 00:19:26;;;;;;;16.10;4.57;;;20.50;40.30;;;;;;1048797;28;20408;-76
2021/06/08 00:19:59;;;;;;;13.32;3.95;;;20.50;40.50;;;;;;1048733;28;20079;-77
2021/06/08 00:20:30;;;;;;;13.07;4.20;;;20.50;40.70;;;;;;1047495;28;20013;-76
2021/06/08 00:21:02;;;;;;;13.60;4.18;;;20.50;40.80;;;;;;1052924;28;20012;-76
2021/06/08 00:21:33;;;;;;;15.48;4.22;;;20.40;41.00;;;;;;1052949;28;20109;-76
2021/06/08 00:22:05;;;;;;;13.60;3.95;;;20.40;41.20;;;;;;1048634;28;20095;-76
2021/06/08 00:22:36;;;;;;;12.30;4.07;;;20.40;41.20;;;;;;1048742;28;20008;-76
2021/06/08 00:23:08;;;;;;;15.18;4.53;;;20.50;40.80;;;;;;1048771;28;20405;-75
2021/06/08 00:23:39;;;;;;;16.90;4.10;;;20.50;40.60;;;;;;1049155;28;20439;-74
2021/06/08 00:24:11;;;;;;;15.13;4.25;;;20.50;40.20;;;;;;1048695;28;20058;-75
2021/06/08 00:24:42;;;;;;;12.00;3.80;;;20.50;40.30;;;;;;1048827;28;20004;-76
2021/06/08 00:25:14;;;;;;;15.07;4.20;;;20.50;40.70;;;;;;1046815;28;20020;-75
2021/06/08 00:25:46;;;;;;;15.10;4.00;;;20.40;40.90;;;;;;1045262;28;20455;-75
2021/06/08 00:26:17;;;;;;;13.90;3.88;;;20.40;40.90;;;;;;1048442;28;20441;-75
2021/06/08 00:26:49;;;;;;;15.52;4.20;;;20.30;41.30;;;;;;1046677;28;20039;-75
2021/06/08 00:27:20;;;;;;;15.23;4.70;;;20.30;41.20;;;;;;1041242;28;20025;-76
2021/06/08 00:27:52;;;;;;;14.02;4.28;;;20.40;41.40;;;;;;1049061;28;20013;-75
2021/06/08 00:28:24;;;;;;;13.70;4.25;;;20.30;41.70;;;;;;1052810;28;20081;-76
2021/06/08 00:28:55;;;;;;;15.00;4.45;;;20.30;41.90;;;;;;1052925;28;20051;-77
2021/06/08 00:29:26;;;;;;;13.65;4.53;;;20.30;41.60;;;;;;1052768;28;20024;-76
2021/06/08 00:29:58;;;;;;;15.35;4.50;;;20.30;41.50;;;;;;1052692;28;20031;-77
2021/06/08 00:30:29;;;;;;;14.88;4.40;;;20.20;41.60;;;;;;1052604;28;20114;-76
2021/06/08 00:31:01;;;;;;;15.93;4.03;;;20.20;41.80;;;;;;1044372;28;20028;-75
2021/06/08 00:31:32;;;;;;;12.60;4.40;;;20.20;42.00;;;;;;1044399;28;20031;-78
2021/06/08 00:32:04;;;;;;;13.98;4.60;;;20.20;42.00;;;;;;1044318;28;20055;-76
2021/06/08 00:32:35;;;;;;;17.67;4.32;;;20.20;41.50;;;;;;1048757;28;20100;-76
2021/06/08 00:33:07;;;;;;;13.25;4.22;;;20.20;41.30;;;;;;1052605;28;20048;-76
2021/06/08 00:33:38;;;;;;;14.40;3.97;;;20.20;41.30;;;;;;1050050;28;20405;-76
2021/06/08 00:34:10;;;;;;;14.75;4.20;;;20.20;41.60;;;;;;1048607;28;20393;-76
2021/06/08 00:34:41;;;;;;;17.45;4.60;;;20.20;41.50;;;;;;1048953;28;20118;-75
2021/06/08 00:35:13;;;;;;;13.50;4.60;;;20.20;41.70;;;;;;1048825;28;20017;-75
2021/06/08 00:35:44;;;;;;;14.75;4.43;;;20.20;41.90;;;;;;1048483;28;20059;-76
2021/06/08 00:36:16;;;;;;;17.00;4.43;;;20.20;42.10;;;;;;1048446;28;20101;-76
2021/06/08 00:36:47;;;;;;;14.35;4.20;;;20.20;41.70;;;;;;1049592;28;20173;-76
2021/06/08 00:37:19;;;;;;;16.45;4.50;;;20.30;41.30;;;;;;1045625;28;20025;-76
2021/06/08 00:37:50;;;;;;;13.95;4.00;;;20.30;41.30;;;;;;1048714;28;20097;-76
2021/06/08 00:38:21;;;;;;;12.93;4.47;;;20.30;41.50;;;;;;1049524;28;20114;-76
2021/06/08 00:38:53;;;;;;;17.15;4.22;;;20.30;41.60;;;;;;1049660;28;20137;-75
2021/06/08 00:39:24;;;;;;;14.30;4.32;;;20.30;41.70;;;;;;1049130;28;20035;-76
2021/06/08 00:39:56;;;;;;;13.13;4.22;;;20.30;41.90;;;;;;1049497;28;20035;-76
2021/06/08 00:40:27;;;;;;;16.38;4.80;;;20.30;41.80;;;;;;1048621;28;20017;-76
2021/06/08 00:41:01;;;;;;;15.48;4.38;;;20.30;41.70;;;;;;1044223;28;20025;-75
2021/06/08 00:41:39;;;;;;;15.23;4.25;;;20.30;41.40;;;;;;1046583;28;20021;-75
2021/06/08 00:42:10;;;;;;;19.98;4.68;;;20.40;41.10;;;;;;1044361;28;20097;-76
2021/06/08 00:42:44;;;;;;;16.42;4.60;;;20.30;41.30;;;;;;1041909;28;20025;-75
2021/06/08 00:43:15;;;;;;;15.23;4.30;;;20.40;41.30;;;;;;1040065;28;20025;-75
2021/06/08 00:43:47;;;;;;;17.23;4.63;;;20.30;41.50;;;;;;1040869;28;20018;-76
2021/06/08 00:44:18;;;;;;;14.07;4.10;;;20.30;41.90;;;;;;1044676;28;20522;-76
2021/06/08 00:44:49;;;;;;;15.65;4.03;;;20.20;42.10;;;;;;1049196;28;20031;-76
2021/06/08 00:45:22;;;;;;;14.02;4.38;;;20.20;42.20;;;;;;1052666;28;20099;-75
2021/06/08 00:45:54;;;;;;;16.25;4.18;;;20.20;42.10;;;;;;1053063;28;20095;-76
2021/06/08 00:46:26;;;;;;;14.48;3.55;;;20.20;41.80;;;;;;1053100;28;20073;-76
2021/06/08 00:46:58;;;;;;;15.82;4.20;;;20.30;41.40;;;;;;1052546;28;20026;-76
2021/06/08 00:47:30;;;;;;;11.73;3.88;;;20.20;41.30;;;;;;1048606;28;20049;-76
2021/06/08 00:48:02;;;;;;;11.98;4.00;;;20.20;40.90;;;;;;1048047;28;20020;-76
2021/06/08 00:48:34;;;;;;;16.45;4.50;;;20.20;40.80;;;;;;1044690;28;20071;-79
2021/06/08 00:49:05;;;;;;;14.93;4.15;;;20.20;40.90;;;;;;1044974;28;20059;-76
2021/06/08 00:49:37;;;;;;;14.88;4.20;;;20.20;41.00;;;;;;1044449;28;20549;-76
2021/06/08 00:50:09;;;;;;;15.82;4.50;;;20.20;41.40;;;;;;1044459;28;20025;-76
2021/06/08 00:50:40;;;;;;;12.68;4.43;;;20.10;41.50;;;;;;1045118;28;20451;-75
2021/06/08 00:51:12;;;;;;;13.90;4.30;;;20.10;41.60;;;;;;1048416;28;20111;-76
2021/06/08 00:51:43;;;;;;;16.15;4.43;;;20.10;42.00;;;;;;1049680;28;20013;-76
2021/06/08 00:52:15;;;;;;;14.57;3.90;;;20.20;41.80;;;;;;1044216;28;20017;-75
2021/06/08 00:52:51;;;;;;;13.40;4.20;;;20.20;41.70;;;;;;1049852;28;20343;-77
2021/06/08 00:53:23;;;;;;;12.82;4.07;;;20.30;41.60;;;;;;1047656;28;20017;-76
2021/06/08 00:53:55;;;;;;;16.73;4.63;;;20.20;41.30;;;;;;1050168;28;20008;-76
2021/06/08 00:54:26;;;;;;;12.55;4.38;;;20.30;41.40;;;;;;1049165;28;20017;-78
2021/06/08 00:54:58;;;;;;;14.80;4.13;;;20.30;41.30;;;;;;1049088;28;20016;-76
2021/06/08 00:55:29;;;;;;;13.35;4.03;;;20.20;40.90;;;;;;1049518;28;20027;-76
2021/06/08 00:56:01;;;;;;;11.60;3.85;;;20.20;41.10;;;;;;1045723;28;20045;-76
2021/06/08 00:56:34;;;;;;;14.55;4.40;;;20.20;41.20;;;;;;1049440;28;20008;-79
2021/06/08 00:57:06;;;;;;;14.55;4.10;;;20.20;41.20;;;;;;1049481;28;20020;-75
2021/06/08 00:57:40;;;;;;;12.75;4.18;;;20.20;40.80;;;;;;1045988;28;20104;-76
2021/06/08 00:58:12;;;;;;;13.38;4.15;;;20.20;40.80;;;;;;1046143;28;20074;-76
2021/06/08 00:58:45;;;;;;;12.20;4.20;;;20.20;41.20;;;;;;1044770;28;20032;-75
2021/06/08 00:59:16;;;;;;;11.65;3.90;;;20.20;41.40;;;;;;1044963;28;20066;-75
2021/06/08 00:59:48;;;;;;;12.82;3.92;;;20.10;41.10;;;;;;1046844;28;20012;-75
2021/06/08 01:00:21;;;;;;;14.90;4.43;;;20.10;40.80;;;;;;1049182;28;20074;-76
2021/06/08 01:00:53;;;;;;;18.08;4.25;;;20.10;40.90;;;;;;1049947;28;20020;-77
2021/06/08 01:01:24;;;;;;;19.35;4.28;;;20.10;41.00;;;;;;1050478;28;20013;-76
2021/06/08 01:01:55;;;;;;;11.75;3.70;;;20.10;41.90;;;;;;1050332;28;20016;-76
2021/06/08 01:02:27;;;;;;;13.02;3.97;;;20.10;40.90;;;;;;1051130;28;20091;-75
2021/06/08 01:02:58;;;;;;;15.73;4.10;;;20.10;40.90;;;;;;1046881;28;20025;-75
2021/06/08 01:03:32;;;;;;;11.85;4.00;;;20.20;41.00;;;;;;1049629;28;20017;-76
2021/06/08 01:04:05;;;;;;;14.40;4.00;;;20.20;40.90;;;;;;1052207;28;20016;-76
2021/06/08 01:04:36;;;;;;;16.98;4.32;;;20.20;41.00;;;;;;1045191;28;20021;-76
2021/06/08 01:05:09;;;;;;;15.43;3.88;;;20.20;41.10;;;;;;1041048;28;20097;-76
2021/06/08 01:05:40;;;;;;;14.75;4.10;;;20.20;41.50;;;;;;1044760;28;20030;-76
2021/06/08 01:06:12;;;;;;;13.48;3.92;;;20.20;41.40;;;;;;1045117;28;20018;-76
2021/06/08 01:06:47;;;;;;;14.75;4.20;;;20.10;41.40;;;;;;1045076;28;20071;-76
2021/06/08 01:07:19;;;;;;;13.43;4.00;;;20.20;41.70;;;;;;1046083;28;20454;-76
2021/06/08 01:07:50;;;;;;;15.35;4.07;;;20.20;41.60;;;;;;1044308;28;20321;-77
2021/06/08 01:08:21;;;;;;;13.95;4.25;;;20.10;41.50;;;;;;1050500;28;20012;-75
2021/06/08 01:08:53;;;;;;;14.20;4.65;;;20.20;41.10;;;;;;1049284;28;20017;-76
2021/06/08 01:09:24;;;;;;;14.55;4.43;;;20.20;40.90;;;;;;1053408;28;20009;-76
2021/06/08 01:09:59;;;;;;;13.35;4.03;;;20.20;41.00;;;;;;1049269;28;20027;-76
2021/06/08 01:10:30;;;;;;;12.77;4.10;;;20.20;41.10;;;;;;1049391;28;20354;-77
2021/06/08 01:11:02;;;;;;;14.32;4.07;;;20.20;41.20;;;;;;1050631;28;20020;-76
2021/06/08 01:11:34;;;;;;;16.92;4.55;;;20.20;41.30;;;;;;1049950;28;20009;-75
2021/06/08 01:12:06;;;;;;;14.57;3.90;;;20.20;40.80;;;;;;1049221;28;20086;-77
2021/06/08 01:12:37;;;;;;;14.38;3.97;;;20.30;40.80;;;;;;1049469;28;20012;-77
2021/06/08 01:13:09;;;;;;;11.55;4.22;;;20.30;41.10;;;;;;1051832;28;20031;-77
2021/06/08 01:13:44;;;;;;;18.77;4.20;;;20.30;40.90;;;;;;1049059;28;20354;-77
2021/06/08 01:14:15;;;;;;;14.13;4.13;;;20.20;41.00;;;;;;1049238;28;20116;-78
2021/06/08 01:14:47;;;;;;;17.00;4.50;;;20.20;41.20;;;;;;1050181;28;20104;-75
2021/06/08 01:15:20;;;;;;;12.63;3.92;;;20.20;41.70;;;;;;1049266;28;20192;-77
2021/06/08 01:15:52;;;;;;;13.80;4.15;;;20.30;41.30;;;;;;1045095;28;20017;-77
2021/06/08 01:16:24;;;;;;;14.82;4.20;;;20.30;41.30;;;;;;1045822;28;20024;-76
2021/06/08 01:16:55;;;;;;;13.85;4.43;;;20.30;40.80;;;;;;1045687;28;20025;-77
2021/06/08 01:17:27;;;;;;;11.95;4.18;;;20.30;41.10;;;;;;1049659;28;20489;-77
2021/06/08 01:17:59;;;;;;;16.10;4.45;;;20.30;41.00;;;;;;1051127;28;20040;-77
2021/06/08 01:18:31;;;;;;;14.27;4.30;;;20.30;41.00;;;;;;1049956;28;20021;-76
2021/06/08 01:19:02;;;;;;;15.02;4.40;;;20.20;41.10;;;;;;1053652;28;20023;-76
2021/06/08 01:19:37;;;;;;;10.75;4.00;;;20.20;41.30;;;;;;1053589;28;20091;-75
2021/06/08 01:20:09;;;;;;;13.48;4.07;;;20.20;41.40;;;;;;1053454;28;20031;-77
2021/06/08 01:20:42;;;;;;;12.07;4.25;;;20.20;41.30;;;;;;1053477;28;20020;-76
2021/06/08 01:21:14;;;;;;;13.25;4.20;;;20.20;41.20;;;;;;1053444;28;20021;-75
2021/06/08 01:21:45;;;;;;;16.58;4.30;;;20.10;40.70;;;;;;1052783;28;20055;-76
2021/06/08 01:22:17;;;;;;;11.95;4.00;;;20.10;40.90;;;;;;1049973;28;20016;-76
2021/06/08 01:22:48;;;;;;;15.57;4.40;;;20.10;41.00;;;;;;1053601;28;20077;-76
2021/06/08 01:23:20;;;;;;;12.93;4.30;;;20.10;40.90;;;;;;1053839;28;20016;-78
2021/06/08 01:23:51;;;;;;;17.23;4.50;;;20.00;40.90;;;;;;1050496;28;20028;-76
2021/06/08 01:24:22;;;;;;;14.82;4.07;;;20.00;41.00;;;;;;1049206;28;20488;-76
2021/06/08 01:24:54;;;;;;;14.93;4.25;;;19.90;41.20;;;;;;1049555;28;20040;-76
2021/06/08 01:25:26;;;;;;;12.75;4.10;;;20.00;41.40;;;;;;1049448;28;20036;-76
2021/06/08 01:25:58;;;;;;;16.15;4.38;;;20.00;41.30;;;;;;1049354;28;20146;-76
2021/06/08 01:26:31;;;;;;;15.23;4.40;;;19.90;41.00;;;;;;1049319;28;20024;-77
2021/06/08 01:27:05;;;;;;;15.73;4.38;;;19.90;41.20;;;;;;1049143;28;20058;-76
2021/06/08 01:27:38;;;;;;;16.05;4.07;;;19.80;41.20;;;;;;1049200;28;20024;-75
2021/06/08 01:28:10;;;;;;;15.63;4.10;;;19.70;41.40;;;;;;1049119;28;20020;-76
2021/06/08 01:28:42;;;;;;;18.13;4.68;;;19.80;41.60;;;;;;1045348;28;20415;-76
2021/06/08 01:29:14;;;;;;;12.65;4.15;;;19.70;41.60;;;;;;1041834;28;20024;-76
2021/06/08 01:29:48;;;;;;;12.38;4.10;;;19.70;42.00;;;;;;1043543;28;20017;-76
2021/06/08 01:30:24;;;;;;;13.27;4.38;;;19.60;42.20;;;;;;1046892;28;20033;-75
2021/06/08 01:30:56;;;;;;;14.68;3.92;;;19.60;42.30;;;;;;1051169;28;20017;-76
2021/06/08 01:31:29;;;;;;;14.57;4.43;;;19.50;42.40;;;;;;1053422;28;20076;-75
2021/06/08 01:32:04;;;;;;;15.52;4.70;;;19.50;42.50;;;;;;1052921;28;20021;-75
2021/06/08 01:32:39;;;;;;;13.77;3.67;;;19.50;42.30;;;;;;1050963;28;20020;-75
2021/06/08 01:33:10;;;;;;;15.25;4.20;;;19.50;42.40;;;;;;1043597;28;20022;-76
2021/06/08 01:33:44;;;;;;;12.80;3.90;;;19.40;42.20;;;;;;1043106;28;20424;-75
2021/06/08 01:34:16;;;;;;;15.43;4.18;;;19.40;42.20;;;;;;1044827;28;20060;-75
2021/06/08 01:34:48;;;;;;;16.23;4.38;;;19.40;42.50;;;;;;1046625;28;20027;-75
2021/06/08 01:35:22;;;;;;;16.42;4.47;;;19.40;42.50;;;;;;1051487;28;20055;-75
2021/06/08 01:35:54;;;;;;;15.38;4.32;;;19.40;42.50;;;;;;1050791;28;20020;-76
2021/06/08 01:36:29;;;;;;;10.60;3.72;;;19.40;42.60;;;;;;1050393;28;20035;-75
2021/06/08 01:37:01;;;;;;;11.75;3.90;;;19.40;42.60;;;;;;1050065;28;20349;-75
2021/06/08 01:37:34;;;;;;;16.05;4.32;;;19.40;42.70;;;;;;1048359;28;20453;-77
2021/06/08 01:38:06;;;;;;;14.77;4.65;;;19.30;42.70;;;;;;1045502;28;20040;-76
2021/06/08 01:38:39;;;;;;;14.93;3.97;;;19.20;42.70;;;;;;1044808;28;20078;-76
2021/06/08 01:39:10;;;;;;;13.60;4.40;;;19.30;42.70;;;;;;1045332;28;20103;-76
2021/06/08 01:39:46;;;;;;;13.05;4.22;;;19.30;42.80;;;;;;1049108;28;20028;-75
2021/06/08 01:40:19;;;;;;;15.43;4.50;;;19.20;42.90;;;;;;1050337;28;20031;-76
2021/06/08 01:40:51;;;;;;;14.20;4.10;;;19.20;42.90;;;;;;1052961;28;20042;-76
2021/06/08 01:41:25;;;;;;;14.40;4.05;;;19.20;42.70;;;;;;1046030;28;20020;-76
2021/06/08 01:41:57;;;;;;;13.70;3.78;;;19.20;42.80;;;;;;1042992;28;20079;-76
2021/06/08 01:42:29;;;;;;;15.85;4.32;;;19.20;42.90;;;;;;1044906;28;20040;-75
2021/06/08 01:43:01;;;;;;;18.40;4.30;;;19.20;43.10;;;;;;1042030;28;20029;-77
2021/06/08 01:43:32;;;;;;;14.32;4.30;;;19.20;43.30;;;;;;1045647;28;20047;-75
2021/06/08 01:44:04;;;;;;;14.95;4.28;;;19.30;43.30;;;;;;1048883;28;20017;-76
2021/06/08 01:44:39;;;;;;;15.23;4.43;;;19.30;43.40;;;;;;1049097;28;20031;-76
2021/06/08 01:45:15;;;;;;;13.98;4.50;;;19.30;43.30;;;;;;1045953;28;20025;-76
2021/06/08 01:45:50;;;;;;;15.13;4.47;;;19.30;43.10;;;;;;1049519;28;20463;-78
2021/06/08 01:46:23;;;;;;;15.02;4.07;;;19.30;43.30;;;;;;1049265;28;20016;-79
2021/06/08 01:46:54;;;;;;;15.82;4.50;;;19.30;43.30;;;;;;1049133;28;20047;-76
2021/06/08 01:47:26;;;;;;;13.75;3.95;;;19.30;43.50;;;;;;1048568;28;20027;-75
2021/06/08 01:47:57;;;;;;;15.68;4.22;;;19.30;43.60;;;;;;1049832;28;20020;-78
2021/06/08 01:48:29;;;;;;;15.18;4.07;;;19.30;43.50;;;;;;1049195;28;20077;-77
2021/06/08 01:49:00;;;;;;;14.25;4.20;;;19.30;43.30;;;;;;1051845;28;20469;-77
2021/06/08 01:49:31;;;;;;;12.50;3.97;;;19.30;43.20;;;;;;1046268;28;20462;-76
2021/06/08 01:50:03;;;;;;;19.90;4.25;;;19.20;43.10;;;;;;1044653;28;20067;-77
2021/06/08 01:50:36;;;;;;;15.18;4.05;;;19.30;43.50;;;;;;1047145;28;20340;-76
2021/06/08 01:51:14;;;;;;;16.45;4.57;;;19.20;43.70;;;;;;1048369;28;20053;-77
2021/06/08 01:52:03;;;;;;;20.70;4.63;;;19.30;44.00;;;;;;1044947;28;20455;-76
2021/06/08 01:53:01;;;;;;;18.25;4.55;;;19.30;44.00;;;;;;1048803;28;20016;-75
2021/06/08 01:54:02;;;;;;;17.55;4.50;;;19.20;44.10;;;;;;1046302;28;20079;-78
2021/06/08 01:55:11;;;;;;;16.25;4.15;;;19.10;44.40;;;;;;1052158;28;20017;-75
2021/06/08 01:55:46;;;;;;;19.67;4.15;;;19.00;44.40;;;;;;1050172;28;20020;-76
2021/06/08 01:56:22;;;;;;;17.60;4.50;;;19.00;44.70;;;;;;1052226;28;20092;-75
2021/06/08 01:57:42;;;;;;;17.30;4.75;;;18.90;44.90;;;;;;1049223;28;20016;-76
2021/06/08 01:58:25;;;;;;;14.98;4.55;;;18.80;45.00;;;;;;1029290;28;20030;-76
2021/06/08 01:59:17;;;;;;;15.38;4.30;;;18.80;45.20;;;;;;1049838;28;20021;-75
2021/06/08 01:59:49;;;;;;;15.68;4.20;;;18.80;45.40;;;;;;1049936;28;20079;-77
2021/06/08 02:00:48;;;;;;;13.57;4.10;;;18.70;45.10;;;;;;1048913;28;20370;-76
2021/06/08 02:01:30;;;;;;;14.55;4.00;;;18.70;45.60;;;;;;1049637;28;20025;-75
2021/06/08 02:02:50;;;;;;;15.18;4.18;;;18.70;45.70;;;;;;1049105;28;20103;-76
2021/06/08 02:03:48;;;;;;;13.33;3.97;;;18.70;45.80;;;;;;1042700;28;20448;-76
2021/06/08 02:04:48;;;;;;;15.90;4.13;;;18.70;46.00;;;;;;1048881;28;20257;-76
2021/06/08 02:05:42;;;;;;;15.65;4.30;;;18.80;45.70;;;;;;1048441;28;20074;-76
2021/06/08 02:06:41;;;;;;;18.52;4.00;;;18.80;45.90;;;;;;1044820;28;20032;-75
2021/06/08 02:07:41;;;;;;;11.75;3.92;;;18.70;46.00;;;;;;1043724;28;20067;-77
2021/06/08 02:08:58;;;;;;;14.02;4.80;;;18.70;46.10;;;;;;1051933;28;20063;-76
2021/06/08 02:09:55;;;;;;;14.65;4.53;;;18.70;45.40;;;;;;1040677;28;20029;-77
2021/06/08 02:10:49;;;;;;;16.08;4.57;;;18.70;45.20;;;;;;1041120;28;20100;-74
2021/06/08 02:11:44;;;;;;;16.48;4.55;;;18.70;45.40;;;;;;1040908;28;20398;-76
2021/06/08 02:12:19;;;;;;;15.05;4.55;;;18.60;45.40;;;;;;1053356;28;20430;-78
2021/06/08 02:13:19;;;;;;;14.30;4.10;;;18.60;45.30;;;;;;1049042;28;20450;-76
2021/06/08 02:14:08;;;;;;;15.27;4.55;;;18.50;45.40;;;;;;1038151;28;20042;-76
2021/06/08 02:15:01;;;;;;;16.27;4.45;;;18.50;45.60;;;;;;1039348;28;20455;-76
2021/06/08 02:15:38;;;;;;;18.55;4.38;;;18.50;45.80;;;;;;1049203;28;20020;-74
2021/06/08 02:16:20;;;;;;;14.95;4.35;;;18.50;45.90;;;;;;1049942;28;20419;-75
2021/06/08 02:17:01;;;;;;;15.15;4.38;;;18.40;46.00;;;;;;1052023;28;20024;-79
2021/06/08 02:17:49;;;;;;;14.13;3.85;;;18.30;46.20;;;;;;1050976;28;20024;-77
2021/06/08 02:18:23;;;;;;;16.10;4.22;;;18.30;46.50;;;;;;1049993;28;20088;-75
2021/06/08 02:18:55;;;;;;;17.15;4.68;;;18.20;46.70;;;;;;1045844;28;20338;-75
2021/06/08 02:19:30;;;;;;;14.05;4.25;;;18.20;46.80;;;;;;1048266;28;20059;-75
2021/06/08 02:20:12;;;;;;;19.90;4.68;;;18.20;46.90;;;;;;1046652;28;20022;-74
2021/06/08 02:20:47;;;;;;;14.43;4.20;;;18.10;47.10;;;;;;1039894;28;20116;-75
2021/06/08 02:21:24;;;;;;;19.38;4.32;;;18.10;47.20;;;;;;1047949;28;20100;-75
2021/06/08 02:22:04;;;;;;;17.33;4.22;;;18.10;47.40;;;;;;1051474;28;20047;-76
2021/06/08 02:22:40;;;;;;;16.63;4.60;;;18.10;47.50;;;;;;1053168;28;20035;-76
2021/06/08 02:23:17;;;;;;;16.38;4.50;;;18.00;47.70;;;;;;1051427;28;20020;-75
2021/06/08 02:23:54;;;;;;;14.95;4.40;;;18.00;47.80;;;;;;1050664;28;20400;-76
2021/06/08 02:24:30;;;;;;;17.85;4.78;;;18.00;48.00;;;;;;1048926;28;20023;-76
2021/06/08 02:25:02;;;;;;;15.30;4.60;;;18.00;48.60;;;;;;1053016;28;20051;-77
2021/06/08 02:25:34;;;;;;;16.90;4.20;;;18.00;47.90;;;;;;1054974;28;20099;-76
2021/06/08 02:26:06;;;;;;;19.48;4.57;;;17.90;47.90;;;;;;1057517;28;20349;-75
2021/06/08 02:26:42;;;;;;;15.13;4.00;;;18.00;48.10;;;;;;1054044;28;20043;-75
2021/06/08 02:27:14;;;;;;;17.33;4.53;;;17.90;48.10;;;;;;1057547;28;20020;-75
2021/06/08 02:27:47;;;;;;;12.70;3.70;;;17.90;48.20;;;;;;1057508;28;20011;-75
2021/06/08 02:28:25;;;;;;;15.68;4.28;;;17.90;48.40;;;;;;1057645;28;20023;-75
2021/06/08 02:28:57;;;;;;;21.35;4.68;;;17.80;48.60;;;;;;1050762;28;20021;-77
2021/06/08 02:29:30;;;;;;;20.50;4.68;;;17.80;48.60;;;;;;1046231;28;20013;-77
2021/06/08 02:30:02;;;;;;;18.17;4.47;;;17.80;48.70;;;;;;1042727;28;20021;-77
2021/06/08 02:30:35;;;;;;;16.20;4.50;;;17.80;48.60;;;;;;1044520;28;20115;-75
2021/06/08 02:31:08;;;;;;;21.15;4.95;;;17.80;48.80;;;;;;1048051;28;20016;-76
2021/06/08 02:31:43;;;;;;;13.65;4.28;;;17.70;49.00;;;;;;1045557;28;20143;-78
2021/06/08 02:32:16;;;;;;;17.23;4.82;;;17.70;49.30;;;;;;1042226;28;20036;-77
2021/06/08 02:32:49;;;;;;;21.75;4.65;;;17.70;49.50;;;;;;1044916;28;20017;-77
2021/06/08 02:33:21;;;;;;;17.85;4.75;;;17.60;49.60;;;;;;1044582;28;20458;-75
2021/06/08 02:33:53;;;;;;;17.08;4.40;;;17.60;49.60;;;;;;1046126;28;20462;-75
2021/06/08 02:34:26;;;;;;;17.25;4.50;;;17.60;49.80;;;;;;1048100;28;20028;-75
2021/06/08 02:35:00;;;;;;;19.98;4.68;;;17.60;50.10;;;;;;1045321;28;20017;-77
2021/06/08 02:35:32;;;;;;;21.50;5.10;;;17.50;50.10;;;;;;1049260;28;20025;-75
2021/06/08 02:36:08;;;;;;;18.27;4.93;;;17.50;50.10;;;;;;1052483;28;20411;-74
2021/06/08 02:36:41;;;;;;;14.63;4.53;;;17.50;50.30;;;;;;1049113;28;20020;-74
2021/06/08 02:37:18;;;;;;;15.02;4.32;;;17.50;50.40;;;;;;1050369;28;20413;-76
2021/06/08 02:37:50;;;;;;;17.38;4.78;;;17.50;50.60;;;;;;1049733;28;20035;-75
2021/06/08 02:38:22;;;;;;;17.75;4.50;;;17.50;50.70;;;;;;1047314;28;20355;-75
2021/06/08 02:38:55;;;;;;;16.98;4.80;;;17.40;50.80;;;;;;1044236;28;20013;-75
2021/06/08 02:39:27;;;;;;;19.73;4.43;;;17.40;50.90;;;;;;1042806;28;20017;-75
2021/06/08 02:40:00;;;;;;;16.90;4.50;;;17.40;50.80;;;;;;1044426;28;20078;-76
2021/06/08 02:40:32;;;;;;;16.08;4.80;;;17.30;50.90;;;;;;1048376;28;20013;-75
2021/06/08 02:41:05;;;;;;;16.92;4.60;;;17.30;51.10;;;;;;1048441;28;20025;-75
2021/06/08 02:41:38;;;;;;;16.98;4.50;;;17.30;51.10;;;;;;1046771;28;20028;-77
2021/06/08 02:42:12;;;;;;;16.33;4.60;;;17.30;50.80;;;;;;1040430;28;20018;-77
2021/06/08 02:42:44;;;;;;;17.38;4.53;;;17.20;50.90;;;;;;1043583;28;20020;-75
2021/06/08 02:43:24;;;;;;;16.15;4.53;;;17.20;51.10;;;;;;1042415;28;20045;-74
2021/06/08 02:43:56;;;;;;;19.67;5.13;;;17.30;51.20;;;;;;1048702;28;20025;-77
2021/06/08 02:44:28;;;;;;;19.35;5.30;;;17.20;51.20;;;;;;1048031;28;20374;-74
2021/06/08 02:45:01;;;;;;;17.02;4.80;;;17.20;51.30;;;;;;1048658;28;20020;-77
2021/06/08 02:45:33;;;;;;;19.83;4.90;;;17.20;51.50;;;;;;1051023;28;20438;-74
2021/06/08 02:46:06;;;;;;;18.33;4.43;;;17.20;51.30;;;;;;1047719;28;20024;-75
2021/06/08 02:46:38;;;;;;;17.45;4.75;;;17.20;51.30;;;;;;1044038;28;20033;-76
2021/06/08 02:47:11;;;;;;;18.17;4.43;;;17.10;51.50;;;;;;1051410;28;20032;-76
2021/06/08 02:47:44;;;;;;;26.15;5.43;;;17.20;51.70;;;;;;1054163;28;20089;-76
2021/06/08 02:48:17;;;;;;;22.17;5.03;;;17.20;51.60;;;;;;1049327;28;20056;-75
2021/06/08 02:48:49;;;;;;;18.00;4.68;;;17.20;51.60;;;;;;1050614;28;20103;-75
2021/06/08 02:49:22;;;;;;;19.10;4.72;;;17.10;51.60;;;;;;1049161;28;20027;-75
2021/06/08 02:49:54;;;;;;;20.17;5.00;;;17.10;51.80;;;;;;1049536;28;20028;-75
2021/06/08 02:50:27;;;;;;;17.10;4.32;;;17.10;51.90;;;;;;1049637;28;20078;-75
2021/06/08 02:50:59;;;;;;;20.90;5.03;;;17.10;52.10;;;;;;1051343;28;20017;-75
2021/06/08 02:51:31;;;;;;;19.48;4.60;;;17.10;52.10;;;;;;1053001;28;20104;-75
2021/06/08 02:52:04;;;;;;;17.25;5.00;;;17.00;52.20;;;;;;1050122;28;20027;-75
2021/06/08 02:52:36;;;;;;;17.42;4.40;;;17.00;52.30;;;;;;1052990;28;20074;-77
2021/06/08 02:53:08;;;;;;;18.75;5.28;;;17.00;52.20;;;;;;1051155;28;20032;-75
2021/06/08 02:53:41;;;;;;;19.45;4.72;;;17.00;52.30;;;;;;1047558;28;20043;-75
2021/06/08 02:54:14;;;;;;;15.73;4.40;;;17.00;52.30;;;;;;1044469;28;20123;-76
2021/06/08 02:54:51;;;;;;;22.63;5.35;;;17.00;52.50;;;;;;1044775;28;20021;-76
2021/06/08 02:55:26;;;;;;;17.95;4.60;;;16.90;52.40;;;;;;1046259;28;20021;-77
2021/06/08 02:55:58;;;;;;;19.33;5.22;;;17.00;52.40;;;;;;1047682;28;20393;-76
2021/06/08 02:56:30;;;;;;;21.27;4.78;;;17.00;52.30;;;;;;1044543;28;20082;-75
2021/06/08 02:57:02;;;;;;;21.10;4.72;;;17.00;52.30;;;;;;1050414;28;20016;-78